createdAt,value
2022-08-04T00:01:40.776Z,3.10
2022-08-04T00:04:16.129Z,3.10
2022-08-04T00:07:01.306Z,2.80
2022-08-04T00:09:49.405Z,3.10
2022-08-04T00:12:19.104Z,3.05
2022-08-04T00:14:52.441Z,3.20
2022-08-04T00:17:24.823Z,3.17
2022-08-04T00:20:02.155Z,2.80
2022-08-04T00:22:34.451Z,3.28
2022-08-04T00:25:05.621Z,3.40
2022-08-04T00:27:36.408Z,3.10
2022-08-04T00:30:06.160Z,3.10
2022-08-04T00:32:35.492Z,3.72
2022-08-04T00:35:04.561Z,3.42
2022-08-04T00:37:35.087Z,3.40
2022-08-04T00:40:12.618Z,3.40
2022-08-04T00:42:58.500Z,3.70
2022-08-04T00:46:10.956Z,3.55
2022-08-04T00:49:27.753Z,3.60
2022-08-04T00:52:32.486Z,3.35
2022-08-04T00:55:13.477Z,3.60
2022-08-04T00:57:57.641Z,3.65
2022-08-04T01:00:26.366Z,3.83
2022-08-04T01:03:11.581Z,4.35
2022-08-04T01:05:53.144Z,5.32
2022-08-04T01:08:51.570Z,3.95
2022-08-04T01:11:57.340Z,4.35
2022-08-04T01:14:52.032Z,4.57
2022-08-04T01:17:26.554Z,3.67
2022-08-04T01:20:03.938Z,3.67
2022-08-04T01:23:31.858Z,4.10
2022-08-04T01:26:57.968Z,3.95
2022-08-04T01:29:46.474Z,4.25
2022-08-04T01:32:26.089Z,4.13
2022-08-04T01:35:02.502Z,4.25
2022-08-04T01:37:50.790Z,4.50
2022-08-04T01:40:19.334Z,3.90
2022-08-04T01:42:51.040Z,4.55
2022-08-04T01:45:21.107Z,4.65
2022-08-04T01:47:52.587Z,4.43
2022-08-04T01:50:22.951Z,4.78
2022-08-04T01:52:55.119Z,4.70
2022-08-04T01:55:24.177Z,4.20
2022-08-04T01:58:13.872Z,4.45
2022-08-04T02:00:56.468Z,4.05
2022-08-04T02:04:18.213Z,4.18
2022-08-04T02:06:33.092Z,4.60
2022-08-04T02:09:12.911Z,4.68
2022-08-04T02:11:46.590Z,4.60
2022-08-04T02:14:43.136Z,4.75
2022-08-04T02:17:15.459Z,4.75
2022-08-04T02:20:01.146Z,4.43
2022-08-04T02:22:30.451Z,4.70
2022-08-04T02:25:08.958Z,3.55
2022-08-04T02:27:59.817Z,4.10
2022-08-04T02:30:35.873Z,3.85
2022-08-04T02:33:10.738Z,3.85
2022-08-04T02:35:42.308Z,4.38
2022-08-04T02:38:37.688Z,3.80
2022-08-04T02:41:07.105Z,3.60
2022-08-04T02:43:50.743Z,3.35
2022-08-04T02:46:22.777Z,3.72
2022-08-04T02:48:55.098Z,4.25
2022-08-04T02:51:35.372Z,3.78
2022-08-04T02:54:06.987Z,4.93
2022-08-04T02:56:38.689Z,3.67
2022-08-04T02:59:10.422Z,3.92
2022-08-04T03:01:56.546Z,3.92
2022-08-04T03:04:52.403Z,3.70
2022-08-04T03:08:13.909Z,3.88
2022-08-04T03:11:17.885Z,3.80
2022-08-04T03:14:22.762Z,4.20
2022-08-04T03:17:32.918Z,3.70
2022-08-04T03:20:45.804Z,3.85
2022-08-04T03:23:34.603Z,3.42
2022-08-04T03:26:58.287Z,3.80
2022-08-04T03:30:00.996Z,3.83
2022-08-04T03:33:26.271Z,3.70
2022-08-04T03:36:44.758Z,3.95
2022-08-04T03:40:16.327Z,4.30
2022-08-04T03:43:56.950Z,4.50
2022-08-04T03:46:53.151Z,4.40
2022-08-04T03:49:57.855Z,4.60
2022-08-04T03:53:11.861Z,3.92
2022-08-04T03:56:22.640Z,4.35
2022-08-04T03:59:33.157Z,4.32
2022-08-04T04:02:29.375Z,4.00
2022-08-04T04:05:19.685Z,4.65
2022-08-04T04:08:19.144Z,3.80
2022-08-04T04:11:31.661Z,4.13
2022-08-04T04:14:27.748Z,3.83
2022-08-04T04:17:38.301Z,3.90
2022-08-04T04:20:27.573Z,3.78
2022-08-04T04:23:12.138Z,4.75
2022-08-04T04:26:00.737Z,4.20
2022-08-04T04:29:03.601Z,4.10
2022-08-04T04:31:48.929Z,4.30
2022-08-04T04:34:36.922Z,4.10
2022-08-04T04:37:22.926Z,4.30
2022-08-04T04:40:11.427Z,4.30
2022-08-04T04:43:20.786Z,4.80
2022-08-04T04:45:57.189Z,4.75
2022-08-04T04:48:37.997Z,4.55
2022-08-04T04:51:19.292Z,4.63
2022-08-04T04:54:00.239Z,4.50
2022-08-04T04:56:42.315Z,4.43
2022-08-04T04:59:16.624Z,4.63
2022-08-04T05:02:26.164Z,4.40
2022-08-04T05:05:43.798Z,4.50
2022-08-04T05:09:14.475Z,5.10
2022-08-04T05:14:33.289Z,5.30
2022-08-04T05:15:08.765Z,5.47
2022-08-04T05:17:41.289Z,5.15
2022-08-04T05:20:15.342Z,5.47
2022-08-04T05:22:54.185Z,5.10
2022-08-04T05:25:27.503Z,4.80
2022-08-04T05:28:05.197Z,4.80
2022-08-04T05:30:47.191Z,4.72
2022-08-04T05:33:20.082Z,3.85
2022-08-04T05:36:18.955Z,3.55
2022-08-04T05:38:43.946Z,3.75
2022-08-04T05:41:13.265Z,3.60
2022-08-04T05:43:45.444Z,3.30
2022-08-04T05:46:15.161Z,4.10
2022-08-04T05:48:45.702Z,2.90
2022-08-04T05:51:16.192Z,3.20
2022-08-04T05:53:47.142Z,3.00
2022-08-04T05:56:16.915Z,3.25
2022-08-04T05:58:48.431Z,3.17
2022-08-04T06:01:19.472Z,3.63
2022-08-04T06:03:50.328Z,3.08
2022-08-04T06:06:20.894Z,4.32
2022-08-04T06:08:49.246Z,3.38
2022-08-04T06:11:18.815Z,3.10
2022-08-04T06:13:54.957Z,3.70
2022-08-04T06:16:28.885Z,3.30
2022-08-04T06:20:01.809Z,3.17
2022-08-04T06:21:54.964Z,3.00
2022-08-04T06:24:29.088Z,3.17
2022-08-04T06:26:58.587Z,2.90
2022-08-04T06:29:35.806Z,3.45
2022-08-04T06:32:26.967Z,2.97
2022-08-04T06:35:02.923Z,3.10
2022-08-04T06:37:42.895Z,3.42
2022-08-04T06:40:30.758Z,3.28
2022-08-04T06:43:03.470Z,3.08
2022-08-04T06:45:36.003Z,2.50
2022-08-04T06:48:07.182Z,3.25
2022-08-04T06:51:32.678Z,2.42
2022-08-04T06:53:26.155Z,2.97
2022-08-04T06:55:55.872Z,3.00
2022-08-04T06:58:26.234Z,2.67
2022-08-04T07:01:01.782Z,2.90
2022-08-04T07:03:30.808Z,2.85
2022-08-04T07:05:59.450Z,2.30
2022-08-04T07:08:36.637Z,2.33
2022-08-04T07:11:06.545Z,2.20
2022-08-04T07:13:35.662Z,2.60
2022-08-04T07:16:06.808Z,2.13
2022-08-04T07:18:35.125Z,2.35
2022-08-04T07:21:03.508Z,2.35
2022-08-04T07:23:32.279Z,2.50
2022-08-04T07:26:11.644Z,2.20
2022-08-04T07:28:42.841Z,2.38
2022-08-04T07:31:33.308Z,2.00
2022-08-04T07:34:16.901Z,1.98
2022-08-04T07:36:52.894Z,2.40
2022-08-04T07:39:28.574Z,2.00
2022-08-04T07:42:01.696Z,2.13
2022-08-04T07:44:32.056Z,2.33
2022-08-04T07:47:03.164Z,2.13
2022-08-04T07:49:55.923Z,2.15
2022-08-04T07:52:21.003Z,2.58
2022-08-04T07:54:50.557Z,2.60
2022-08-04T07:57:41.667Z,2.15
2022-08-04T08:00:12.121Z,2.35
2022-08-04T08:02:42.784Z,2.00
2022-08-04T08:05:16.930Z,2.45
2022-08-04T08:07:50.101Z,2.10
2022-08-04T08:10:20.785Z,1.85
2022-08-04T08:12:52.261Z,2.08
2022-08-04T08:15:22.659Z,2.03
2022-08-04T08:17:59.577Z,2.30
2022-08-04T08:20:31.510Z,2.33
2022-08-04T08:23:00.641Z,1.73
2022-08-04T08:25:31.553Z,2.20
2022-08-04T08:28:00.643Z,1.90
2022-08-04T08:30:31.849Z,2.38
2022-08-04T08:33:07.187Z,2.05
2022-08-04T08:35:53.922Z,1.88
2022-08-04T08:38:40.297Z,1.95
2022-08-04T08:41:54.403Z,2.28
2022-08-04T08:45:09.738Z,2.20
2022-08-04T08:48:23.817Z,2.28
2022-08-04T08:51:31.466Z,2.15
2022-08-04T08:54:26.278Z,2.05
2022-08-04T08:57:14.493Z,1.60
2022-08-04T09:00:01.864Z,1.75
2022-08-04T09:03:13.099Z,1.67
2022-08-04T09:06:41.006Z,1.85
2022-08-04T09:09:38.522Z,1.90
2022-08-04T09:12:14.148Z,2.05
2022-08-04T09:14:50.595Z,1.65
2022-08-04T09:17:24.850Z,1.85
2022-08-04T09:19:59.349Z,1.92
2022-08-04T09:22:41.110Z,2.20
2022-08-04T09:25:15.389Z,1.70
2022-08-04T09:27:51.665Z,2.00
2022-08-04T09:30:24.106Z,2.00
2022-08-04T09:33:08.727Z,1.90
2022-08-04T09:35:49.145Z,2.17
2022-08-04T09:38:30.979Z,1.63
2022-08-04T09:41:26.208Z,2.03
2022-08-04T09:44:52.612Z,1.75
2022-08-04T09:47:20.839Z,1.65
2022-08-04T09:49:57.542Z,1.67
2022-08-04T09:52:44.376Z,1.75
2022-08-04T09:55:25.328Z,2.17
2022-08-04T09:58:05.868Z,1.75
2022-08-04T10:00:42.583Z,2.00
2022-08-04T10:03:19.613Z,2.00
2022-08-04T10:06:08.507Z,2.08
2022-08-04T10:08:58.301Z,1.85
2022-08-04T10:11:55.760Z,2.05
2022-08-04T10:14:40.251Z,1.65
2022-08-04T10:17:33.755Z,2.10
2022-08-04T10:20:10.891Z,2.25
2022-08-04T10:23:09.149Z,1.73
2022-08-04T10:26:05.777Z,1.90
2022-08-04T10:28:44.361Z,2.05
2022-08-04T10:31:20.763Z,1.77
2022-08-04T10:33:56.140Z,2.35
2022-08-04T10:36:30.360Z,1.90
2022-08-04T10:39:07.721Z,1.80
2022-08-04T10:41:51.453Z,1.92
2022-08-04T10:44:41.778Z,1.80
2022-08-04T10:47:20.852Z,1.90
2022-08-04T10:49:57.037Z,2.03
2022-08-04T10:52:34.222Z,1.77
2022-08-04T10:55:12.593Z,2.30
2022-08-04T10:57:45.161Z,1.63
2022-08-04T11:00:22.723Z,1.77
2022-08-04T11:02:58.126Z,2.00
2022-08-04T11:05:32.078Z,1.73
2022-08-04T11:08:08.844Z,1.77
2022-08-04T11:10:48.575Z,1.70
2022-08-04T11:13:22.049Z,2.00
2022-08-04T11:16:05.401Z,1.95
2022-08-04T11:18:44.123Z,1.90
2022-08-04T11:21:19.160Z,1.65
2022-08-04T11:23:57.941Z,2.20
2022-08-04T11:26:39.438Z,1.95
2022-08-04T11:29:19.038Z,2.17
2022-08-04T11:31:52.289Z,2.10
2022-08-04T11:34:23.944Z,2.30
2022-08-04T11:37:01.897Z,2.03
2022-08-04T11:39:35.549Z,2.30
2022-08-04T11:42:15.685Z,2.20
2022-08-04T11:44:49.458Z,2.50
2022-08-04T11:47:30.638Z,2.08
2022-08-04T11:50:09.752Z,1.98
2022-08-04T11:52:43.102Z,2.13
2022-08-04T11:55:16.598Z,2.08
2022-08-04T11:57:45.687Z,2.28
2022-08-04T12:00:27.223Z,2.22
2022-08-04T12:03:19.498Z,2.67
2022-08-04T12:05:57.380Z,2.50
2022-08-04T12:08:42.155Z,2.63
2022-08-04T12:11:23.924Z,2.38
2022-08-04T12:14:15.113Z,2.58
2022-08-04T12:16:54.236Z,2.47
2022-08-04T12:19:38.867Z,2.58
2022-08-04T12:22:31.315Z,2.53
2022-08-04T12:25:06.511Z,2.70
2022-08-04T12:27:41.507Z,2.78
2022-08-04T12:30:58.560Z,2.45
2022-08-04T12:33:07.116Z,3.13
2022-08-04T12:36:05.157Z,2.58
2022-08-04T12:38:35.482Z,2.60
2022-08-04T12:41:04.794Z,2.90
2022-08-04T12:43:42.134Z,2.38
2022-08-04T12:46:12.559Z,2.90
2022-08-04T12:48:46.884Z,2.72
2022-08-04T12:52:07.091Z,2.50
2022-08-04T12:54:06.870Z,2.42
2022-08-04T12:56:35.950Z,2.30
2022-08-04T12:59:12.593Z,2.67
2022-08-04T13:02:07.069Z,1.77
2022-08-04T13:04:42.676Z,1.95
2022-08-04T13:07:25.612Z,1.95
2022-08-04T13:09:54.317Z,1.75
2022-08-04T13:12:32.227Z,1.98
2022-08-04T13:15:17.910Z,2.00
2022-08-04T13:17:57.332Z,1.60
2022-08-04T13:20:31.034Z,1.83
2022-08-04T13:23:08.908Z,1.80
2022-08-04T13:26:44.109Z,1.73
2022-08-04T13:28:34.725Z,1.60
2022-08-04T13:31:08.024Z,1.65
2022-08-04T13:33:40.497Z,1.63
2022-08-04T13:36:10.464Z,1.60
2022-08-04T13:38:48.018Z,1.63
2022-08-04T13:41:19.541Z,1.35
2022-08-04T13:44:17.379Z,1.80
2022-08-04T13:46:50.453Z,1.50
2022-08-04T13:49:43.116Z,1.80
2022-08-04T13:52:11.443Z,1.95
2022-08-04T13:54:46.146Z,1.80
2022-08-04T13:57:21.085Z,1.95
2022-08-04T13:59:55.458Z,2.08
2022-08-04T14:02:47.266Z,1.63
2022-08-04T14:05:27.412Z,1.85
2022-08-04T14:07:59.916Z,1.60
2022-08-04T14:10:30.633Z,1.70
2022-08-04T14:12:59.095Z,1.50
2022-08-04T14:15:54.888Z,1.52
2022-08-04T14:18:32.072Z,1.70
2022-08-04T14:21:09.519Z,1.88
2022-08-04T14:23:47.248Z,2.15
2022-08-04T14:26:29.999Z,1.63
2022-08-04T14:29:27.252Z,1.50
2022-08-04T14:32:14.106Z,1.85
2022-08-04T14:34:45.678Z,2.08
2022-08-04T14:37:20.343Z,1.65
2022-08-04T14:40:19.292Z,1.58
2022-08-04T14:42:54.515Z,1.92
2022-08-04T14:45:33.022Z,2.30
2022-08-04T14:48:03.064Z,1.73
2022-08-04T14:50:40.610Z,2.00
2022-08-04T14:53:11.748Z,1.90
2022-08-04T14:55:43.593Z,2.03
2022-08-04T14:58:35.373Z,2.47
2022-08-04T15:01:11.724Z,2.22
2022-08-04T15:03:51.060Z,2.20
2022-08-04T15:06:25.995Z,2.05
2022-08-04T15:08:56.824Z,2.00
2022-08-04T15:11:26.371Z,2.45
2022-08-04T15:13:57.808Z,2.30
2022-08-04T15:16:28.173Z,2.10
2022-08-04T15:18:57.668Z,2.55
2022-08-04T15:21:30.514Z,1.80
2022-08-04T15:24:00.704Z,1.90
2022-08-04T15:26:35.261Z,1.90
2022-08-04T15:29:16.614Z,2.00
2022-08-04T15:32:06.741Z,2.00
2022-08-04T15:34:49.771Z,2.67
2022-08-04T15:37:26.643Z,2.17
2022-08-04T15:40:01.386Z,2.40
2022-08-04T15:42:37.534Z,1.80
2022-08-04T15:46:02.071Z,1.90
2022-08-04T15:48:33.569Z,2.10
2022-08-04T15:51:14.695Z,1.80
2022-08-04T15:54:27.412Z,1.90
2022-08-04T15:57:02.669Z,1.95
2022-08-04T16:00:01.332Z,2.25
2022-08-04T16:02:44.421Z,2.00
2022-08-04T16:05:39.562Z,2.30
2022-08-04T16:08:19.362Z,2.30
2022-08-04T16:10:50.694Z,2.47
2022-08-04T16:13:22.331Z,2.60
2022-08-04T16:15:56.418Z,2.08
2022-08-04T16:18:44.653Z,1.88
2022-08-04T16:21:25.366Z,2.33
2022-08-04T16:24:11.318Z,2.03
2022-08-04T16:26:54.312Z,1.98
2022-08-04T16:29:39.743Z,1.75
2022-08-04T16:32:23.169Z,1.85
2022-08-04T16:35:00.233Z,1.98
2022-08-04T16:37:35.697Z,1.85
2022-08-04T16:40:37.171Z,1.77
2022-08-04T16:43:10.099Z,1.92
2022-08-04T16:45:51.021Z,2.15
2022-08-04T16:48:21.036Z,1.88
2022-08-04T16:50:55.527Z,1.90
2022-08-04T16:54:02.962Z,2.03
2022-08-04T16:56:18.937Z,1.67
2022-08-04T16:58:53.153Z,1.85
2022-08-04T17:01:33.787Z,2.30
2022-08-04T17:04:06.855Z,2.03
2022-08-04T17:06:38.725Z,2.03
2022-08-04T17:09:11.270Z,1.98
2022-08-04T17:11:39.952Z,1.98
2022-08-04T17:14:08.467Z,2.17
2022-08-04T17:16:42.308Z,1.90
2022-08-04T17:19:20.004Z,1.85
2022-08-04T17:22:04.197Z,1.60
2022-08-04T17:24:35.028Z,2.05
2022-08-04T17:27:04.408Z,2.00
2022-08-04T17:29:52.125Z,1.52
2022-08-04T17:32:22.852Z,2.05
2022-08-04T17:34:54.226Z,2.10
2022-08-04T17:37:53.236Z,1.90
2022-08-04T17:40:18.535Z,1.83
2022-08-04T17:44:01.497Z,1.70
2022-08-04T17:46:28.834Z,1.95
2022-08-04T17:49:06.219Z,2.33
2022-08-04T17:52:04.930Z,1.90
2022-08-04T17:54:39.030Z,1.98
2022-08-04T17:57:21.087Z,1.50
2022-08-04T17:59:57.743Z,1.90
2022-08-04T18:02:33.488Z,1.85
2022-08-04T18:05:07.840Z,1.85
2022-08-04T18:08:35.453Z,1.45
2022-08-04T18:10:54.233Z,2.05
2022-08-04T18:13:26.197Z,1.60
2022-08-04T18:16:03.496Z,1.75
2022-08-04T18:18:31.960Z,1.70
2022-08-04T18:21:03.492Z,1.50
2022-08-04T18:23:33.740Z,1.85
2022-08-04T18:26:04.025Z,1.58
2022-08-04T18:28:33.124Z,1.83
2022-08-04T18:31:02.469Z,1.70
2022-08-04T18:33:39.598Z,1.90
2022-08-04T18:36:32.520Z,1.58
2022-08-04T18:38:59.202Z,1.77
2022-08-04T18:42:02.086Z,1.77
2022-08-04T18:44:30.947Z,1.88
2022-08-04T18:50:59.483Z,2.10
2022-08-04T18:55:51.721Z,1.52
2022-08-04T18:58:26.763Z,1.75
2022-08-04T19:01:00.303Z,1.90
2022-08-04T19:03:30.762Z,2.00
2022-08-04T19:06:02.544Z,1.92
2022-08-04T19:08:33.941Z,1.83
2022-08-04T19:11:37.371Z,2.45
2022-08-04T19:13:58.181Z,1.90
2022-08-04T19:16:29.312Z,2.28
2022-08-04T19:19:09.192Z,1.90
2022-08-04T19:22:00.576Z,2.00
2022-08-04T19:24:35.609Z,2.42
2022-08-04T19:27:09.801Z,2.33
2022-08-04T19:29:41.425Z,2.17
2022-08-04T19:32:15.803Z,2.50
2022-08-04T19:34:47.726Z,2.63
2022-08-04T19:37:56.953Z,2.47
2022-08-04T19:40:09.556Z,3.10
2022-08-04T19:42:44.047Z,3.25
2022-08-04T19:45:15.678Z,2.60
2022-08-04T19:48:12.159Z,2.80
2022-08-04T19:50:33.980Z,3.20
2022-08-04T19:53:04.213Z,2.63
2022-08-04T19:55:49.568Z,3.13
2022-08-04T19:58:21.931Z,2.88
2022-08-04T20:00:56.529Z,3.35
2022-08-04T20:04:09.217Z,3.10
2022-08-04T20:06:13.348Z,3.55
2022-08-04T20:08:48.328Z,3.67
2022-08-04T20:11:18.916Z,3.17
2022-08-04T20:13:54.774Z,3.75
2022-08-04T20:16:29.308Z,3.42
2022-08-04T20:19:03.241Z,3.60
2022-08-04T20:21:54.036Z,3.33
2022-08-04T20:24:40.530Z,3.00
2022-08-04T20:27:15.248Z,3.30
2022-08-04T20:29:49.610Z,3.00
2022-08-04T20:32:22.621Z,3.05
2022-08-04T20:34:52.533Z,3.10
2022-08-04T20:37:23.503Z,2.75
2022-08-04T20:39:55.497Z,2.70
2022-08-04T20:42:27.486Z,2.88
2022-08-04T20:45:02.497Z,2.90
2022-08-04T20:47:35.257Z,2.70
2022-08-04T20:50:08.923Z,2.90
2022-08-04T20:52:39.474Z,3.08
2022-08-04T20:55:10.039Z,2.50
2022-08-04T20:57:48.578Z,3.05
2022-08-04T21:03:08.901Z,3.00
2022-08-04T21:05:37.038Z,3.25
2022-08-04T21:08:05.778Z,3.13
2022-08-04T21:10:35.317Z,3.38
2022-08-04T21:13:03.700Z,3.10
2022-08-04T21:15:58.039Z,3.67
2022-08-04T21:18:29.179Z,3.92
2022-08-04T21:20:58.117Z,3.78
2022-08-04T21:23:26.281Z,3.42
2022-08-04T21:25:58.298Z,3.90
2022-08-04T21:28:26.708Z,4.43
2022-08-04T21:30:55.944Z,3.42
2022-08-04T21:33:50.750Z,4.10
2022-08-04T21:36:19.968Z,3.78
2022-08-04T21:38:51.279Z,4.40
2022-08-04T21:41:24.675Z,4.35
2022-08-04T21:43:56.350Z,3.83
2022-08-04T21:46:30.102Z,4.07
2022-08-04T21:49:00.426Z,4.70
2022-08-04T21:51:58.609Z,4.78
2022-08-04T21:54:23.941Z,4.55
2022-08-04T21:56:52.436Z,4.68
2022-08-04T21:59:23.774Z,5.30
2022-08-04T22:02:00.380Z,5.22
2022-08-04T22:04:30.938Z,4.40
2022-08-04T22:07:02.938Z,4.63
2022-08-04T22:09:38.695Z,4.78
2022-08-04T22:12:12.016Z,4.72
2022-08-04T22:14:41.386Z,5.25
2022-08-04T22:17:13.572Z,4.55
2022-08-04T22:19:55.661Z,5.40
2022-08-04T22:22:29.090Z,5.40
2022-08-04T22:25:12.532Z,5.50
2022-08-04T22:28:02.697Z,4.95
2022-08-04T22:30:37.033Z,5.07
2022-08-04T22:33:09.002Z,5.68
2022-08-04T22:35:43.688Z,5.28
2022-08-04T22:38:21.311Z,4.72
2022-08-04T22:40:59.313Z,5.15
2022-08-04T22:43:33.775Z,4.75
2022-08-04T22:46:06.497Z,4.80
2022-08-04T22:48:38.480Z,4.47
2022-08-04T22:51:09.464Z,4.45
2022-08-04T22:53:41.811Z,4.60
2022-08-04T22:56:38.017Z,4.38
2022-08-04T22:59:05.933Z,4.22
2022-08-04T23:01:59.263Z,4.40
2022-08-04T23:04:25.591Z,4.28
2022-08-04T23:06:55.249Z,4.15
2022-08-04T23:09:49.659Z,4.70
2022-08-04T23:12:24.582Z,4.25
2022-08-04T23:14:55.191Z,4.55
2022-08-04T23:17:24.244Z,5.38
2022-08-04T23:19:57.450Z,5.22
2022-08-04T23:22:42.179Z,5.63
2022-08-04T23:25:15.143Z,4.97
2022-08-04T23:27:50.843Z,5.28
2022-08-04T23:30:22.005Z,5.60
2022-08-04T23:32:54.058Z,5.65
2022-08-04T23:35:23.174Z,5.43
2022-08-04T23:37:57.396Z,5.97
2022-08-04T23:40:34.313Z,5.60
2022-08-04T23:43:12.328Z,6.13
2022-08-04T23:46:04.285Z,5.63
2022-08-04T23:48:35.074Z,5.63
2022-08-04T23:51:14.047Z,5.82
2022-08-04T23:54:02.577Z,5.40
2022-08-04T23:56:33.092Z,5.28
2022-08-04T23:59:03.913Z,5.28
